Terminal Aerodrome Forecast
Issued by NWS

Home | Current Version | Previous Version | Text Only | Print | Product List | Glossary On
Versions: 1 2 3 4 5 6 7 8 9 10 11 12 13 14 15 16 17 18 19 20
595
FTUS41 KBTV 172332
TAFSLK
TAF
KSLK 172332Z 1800/1824 VRB03KT P6SM OVC120
     FM180800 14006KT 5SM -SHRA BR BKN025 OVC045 WS020/21035KT
     FM181000 15006KT 6SM -SHRA BR BKN020 OVC030 WS020/22040KT
     FM181300 16007KT P6SM -SHRA BKN015 OVC025
     FM181800 20009KT P6SM VCSH BKN025 BKN035=

USA.gov is the U.S. government's official web portal to all federal, state and local government web resources and services.